sensor_id;sensor_type;location;lat;lon;timestamp;pressure;altitude;pressure_sealevel;temperature;humidity
23953;BME280;12163;49.316;6.092;2023-04-07T00:01:53;99363.44;;;9.80;78.24
23953;BME280;12163;49.316;6.092;2023-04-07T00:04:19;99367.22;;;9.79;78.54
23953;BME280;12163;49.316;6.092;2023-04-07T00:06:46;99363.72;;;9.79;78.43
23953;BME280;12163;49.316;6.092;2023-04-07T00:09:13;99365.63;;;9.78;78.67
23953;BME280;12163;49.316;6.092;2023-04-07T00:11:39;99365.31;;;9.80;78.30
23953;BME280;12163;49.316;6.092;2023-04-07T00:14:06;99365.31;;;9.80;78.53
23953;BME280;12163;49.316;6.092;2023-04-07T00:16:33;99360.75;;;9.80;78.23
23953;BME280;12163;49.316;6.092;2023-04-07T00:18:59;99361.00;;;9.79;78.23
23953;BME280;12163;49.316;6.092;2023-04-07T00:21:26;99348.91;;;9.76;78.23
23953;BME280;12163;49.316;6.092;2023-04-07T00:23:53;99359.97;;;9.75;78.30
23953;BME280;12163;49.316;6.092;2023-04-07T00:26:20;99356.25;;;9.71;78.45
23953;BME280;12163;49.316;6.092;2023-04-07T00:28:47;99348.75;;;9.68;78.59
23953;BME280;12163;49.316;6.092;2023-04-07T00:31:13;99348.75;;;9.63;78.65
23953;BME280;12163;49.316;6.092;2023-04-07T00:33:40;99349.63;;;9.58;78.63
23953;BME280;12163;49.316;6.092;2023-04-07T00:36:06;99335.09;;;9.54;78.60
23953;BME280;12163;49.316;6.092;2023-04-07T00:38:33;99338.38;;;9.51;78.84
23953;BME280;12163;49.316;6.092;2023-04-07T00:41:00;99344.88;;;9.45;79.10
23953;BME280;12163;49.316;6.092;2023-04-07T00:43:27;99336.88;;;9.40;79.08
23953;BME280;12163;49.316;6.092;2023-04-07T00:45:53;99326.66;;;9.37;79.63
23953;BME280;12163;49.316;6.092;2023-04-07T00:48:20;99333.69;;;9.33;79.95
23953;BME280;12163;49.316;6.092;2023-04-07T00:50:47;99330.25;;;9.28;79.88
23953;BME280;12163;49.316;6.092;2023-04-07T00:53:14;99323.00;;;9.23;79.75
23953;BME280;12163;49.316;6.092;2023-04-07T00:55:41;99318.75;;;9.17;79.93
23953;BME280;12163;49.316;6.092;2023-04-07T00:58:08;99320.16;;;9.10;80.39
23953;BME280;12163;49.316;6.092;2023-04-07T01:00:41;99315.06;;;9.03;80.72
23953;BME280;12163;49.316;6.092;2023-04-07T01:03:27;99307.31;;;8.97;80.95
23953;BME280;12163;49.316;6.092;2023-04-07T01:06:01;99307.88;;;8.94;81.24
23953;BME280;12163;49.316;6.092;2023-04-07T01:08:50;99306.03;;;8.89;81.41
23953;BME280;12163;49.316;6.092;2023-04-07T01:11:43;99312.53;;;8.83;81.38
23953;BME280;12163;49.316;6.092;2023-04-07T01:14:14;99314.13;;;8.84;82.14
23953;BME280;12163;49.316;6.092;2023-04-07T01:16:48;99314.16;;;8.79;81.98
23953;BME280;12163;49.316;6.092;2023-04-07T01:19:36;99307.75;;;8.75;82.23
23953;BME280;12163;49.316;6.092;2023-04-07T01:22:07;99316.34;;;8.77;82.01
23953;BME280;12163;49.316;6.092;2023-04-07T01:30:19;99312.06;;;8.71;81.60
23953;BME280;12163;49.316;6.092;2023-04-07T01:32:49;99309.66;;;8.70;82.12
23953;BME280;12163;49.316;6.092;2023-04-07T01:35:18;99312.63;;;8.68;81.83
23953;BME280;12163;49.316;6.092;2023-04-07T01:37:45;99307.78;;;8.65;82.14
23953;BME280;12163;49.316;6.092;2023-04-07T01:40:15;99312.66;;;8.63;82.64
23953;BME280;12163;49.316;6.092;2023-04-07T01:42:42;99308.34;;;8.62;82.83
23953;BME280;12163;49.316;6.092;2023-04-07T01:45:10;99315.34;;;8.63;82.72
23953;BME280;12163;49.316;6.092;2023-04-07T01:47:37;99304.88;;;8.62;82.95
23953;BME280;12163;49.316;6.092;2023-04-07T01:50:05;99306.75;;;8.61;82.71
23953;BME280;12163;49.316;6.092;2023-04-07T01:52:35;99299.75;;;8.60;83.06
23953;BME280;12163;49.316;6.092;2023-04-07T01:55:06;99306.50;;;8.58;83.18
23953;BME280;12163;49.316;6.092;2023-04-07T01:57:32;99305.69;;;8.57;83.13
23953;BME280;12163;49.316;6.092;2023-04-07T01:59:59;99302.75;;;8.59;83.44
23953;BME280;12163;49.316;6.092;2023-04-07T02:02:26;99298.66;;;8.61;84.10
23953;BME280;12163;49.316;6.092;2023-04-07T02:05:03;99302.97;;;8.67;84.06
23953;BME280;12163;49.316;6.092;2023-04-07T02:07:52;99304.00;;;8.71;84.30
23953;BME280;12163;49.316;6.092;2023-04-07T02:10:23;99303.41;;;8.79;84.11
23953;BME280;12163;49.316;6.092;2023-04-07T02:12:51;99302.84;;;8.82;84.03
23953;BME280;12163;49.316;6.092;2023-04-07T02:15:18;99303.09;;;8.86;84.08
23953;BME280;12163;49.316;6.092;2023-04-07T02:17:47;99300.94;;;8.88;84.08
23953;BME280;12163;49.316;6.092;2023-04-07T02:20:16;99296.88;;;8.90;84.04
23953;BME280;12163;49.316;6.092;2023-04-07T02:22:43;99296.31;;;8.93;84.47
23953;BME280;12163;49.316;6.092;2023-04-07T02:25:30;99299.00;;;8.93;84.28
23953;BME280;12163;49.316;6.092;2023-04-07T02:27:58;99301.66;;;8.98;84.13
23953;BME280;12163;49.316;6.092;2023-04-07T02:30:25;99302.19;;;9.00;83.96
23953;BME280;12163;49.316;6.092;2023-04-07T02:32:52;99298.41;;;9.01;83.78
23953;BME280;12163;49.316;6.092;2023-04-07T02:35:19;99297.31;;;9.02;83.92
23953;BME280;12163;49.316;6.092;2023-04-07T02:37:46;99303.53;;;9.03;83.94
23953;BME280;12163;49.316;6.092;2023-04-07T02:40:13;99302.44;;;9.04;83.86
23953;BME280;12163;49.316;6.092;2023-04-07T02:42:39;99292.97;;;9.06;83.91
23953;BME280;12163;49.316;6.092;2023-04-07T02:45:07;99294.56;;;9.07;83.63
23953;BME280;12163;49.316;6.092;2023-04-07T02:47:35;99295.09;;;9.09;83.58
23953;BME280;12163;49.316;6.092;2023-04-07T02:50:02;99294.56;;;9.07;83.76
23953;BME280;12163;49.316;6.092;2023-04-07T02:52:29;99289.19;;;9.07;83.71
23953;BME280;12163;49.316;6.092;2023-04-07T02:54:56;99297.00;;;9.09;83.75
23953;BME280;12163;49.316;6.092;2023-04-07T02:57:22;99292.19;;;9.06;83.80
23953;BME280;12163;49.316;6.092;2023-04-07T02:59:49;99296.75;;;9.05;83.66
23953;BME280;12163;49.316;6.092;2023-04-07T03:02:15;99302.13;;;9.05;83.49
23953;BME280;12163;49.316;6.092;2023-04-07T03:04:42;99298.34;;;9.06;83.58
23953;BME280;12163;49.316;6.092;2023-04-07T03:07:09;99305.34;;;9.07;83.55
23953;BME280;12163;49.316;6.092;2023-04-07T03:09:35;99299.97;;;9.07;83.41
23953;BME280;12163;49.316;6.092;2023-04-07T03:12:02;99291.88;;;9.12;83.39
23953;BME280;12163;49.316;6.092;2023-04-07T03:14:29;99296.69;;;9.15;83.50
23953;BME280;12163;49.316;6.092;2023-04-07T03:16:55;99285.94;;;9.15;82.93
23953;BME280;12163;49.316;6.092;2023-04-07T03:19:22;99293.94;;;9.20;82.55
23953;BME280;12163;49.316;6.092;2023-04-07T03:21:49;99292.34;;;9.19;82.39
23953;BME280;12163;49.316;6.092;2023-04-07T03:24:15;99293.94;;;9.20;81.79
23953;BME280;12163;49.316;6.092;2023-04-07T03:26:42;99294.50;;;9.17;81.23
23953;BME280;12163;49.316;6.092;2023-04-07T03:29:09;99292.34;;;9.19;80.81
23953;BME280;12163;49.316;6.092;2023-04-07T03:31:36;99292.34;;;9.19;80.76
23953;BME280;12163;49.316;6.092;2023-04-07T03:34:03;99299.34;;;9.20;80.83
23953;BME280;12163;49.316;6.092;2023-04-07T03:36:30;99302.53;;;9.22;80.83
23953;BME280;12163;49.316;6.092;2023-04-07T03:38:59;99307.13;;;9.22;80.44
23953;BME280;12163;49.316;6.092;2023-04-07T03:41:26;99313.06;;;9.19;80.02
23953;BME280;12163;49.316;6.092;2023-04-07T03:43:52;99319.00;;;9.16;80.01
23953;BME280;12163;49.316;6.092;2023-04-07T03:46:19;99318.22;;;9.15;79.47
23953;BME280;12163;49.316;6.092;2023-04-07T03:48:46;99313.41;;;9.12;79.14
23953;BME280;12163;49.316;6.092;2023-04-07T03:51:14;99306.41;;;9.11;78.93
23953;BME280;12163;49.316;6.092;2023-04-07T03:53:40;99308.03;;;9.12;78.66
23953;BME280;12163;49.316;6.092;2023-04-07T03:56:07;99314.19;;;9.13;78.28
23953;BME280;12163;49.316;6.092;2023-04-07T03:58:33;99312.03;;;9.15;78.32
23953;BME280;12163;49.316;6.092;2023-04-07T04:01:00;99312.84;;;9.15;77.74
23953;BME280;12163;49.316;6.092;2023-04-07T04:03:27;99312.03;;;9.15;78.03
23953;BME280;12163;49.316;6.092;2023-04-07T04:05:53;99315.00;;;9.13;77.49
23953;BME280;12163;49.316;6.092;2023-04-07T04:08:20;99313.41;;;9.12;77.31
23953;BME280;12163;49.316;6.092;2023-04-07T04:10:47;99315.00;;;9.13;77.29
23953;BME280;12163;49.316;6.092;2023-04-07T04:13:13;99315.00;;;9.13;77.28
23953;BME280;12163;49.316;6.092;2023-04-07T04:15:40;99316.09;;;9.12;76.98
23953;BME280;12163;49.316;6.092;2023-04-07T04:18:06;99310.97;;;9.11;76.97
23953;BME280;12163;49.316;6.092;2023-04-07T04:20:34;99299.19;;;9.07;76.75
23953;BME280;12163;49.316;6.092;2023-04-07T04:23:00;99305.91;;;9.04;76.72
23953;BME280;12163;49.316;6.092;2023-04-07T04:25:27;99308.09;;;9.02;76.78
23953;BME280;12163;49.316;6.092;2023-04-07T04:27:54;99307.56;;;9.00;76.51
23953;BME280;12163;49.316;6.092;2023-04-07T04:30:21;99303.28;;;8.99;76.76
23953;BME280;12163;49.316;6.092;2023-04-07T04:32:47;99306.00;;;8.94;77.07
23953;BME280;12163;49.316;6.092;2023-04-07T04:35:15;99308.97;;;8.93;76.77
23953;BME280;12163;49.316;6.092;2023-04-07T04:37:41;99302.81;;;8.87;76.89
23953;BME280;12163;49.316;6.092;2023-04-07T04:40:08;99297.97;;;8.84;76.86
23953;BME280;12163;49.316;6.092;2023-04-07T04:42:35;99291.03;;;8.78;77.17
23953;BME280;12163;49.316;6.092;2023-04-07T04:45:02;99298.63;;;8.71;76.88
23953;BME280;12163;49.316;6.092;2023-04-07T04:47:29;99292.19;;;8.67;77.08
23953;BME280;12163;49.316;6.092;2023-04-07T04:49:56;99293.03;;;8.63;77.23
23953;BME280;12163;49.316;6.092;2023-04-07T04:52:22;99288.47;;;8.58;77.37
23953;BME280;12163;49.316;6.092;2023-04-07T04:54:49;99282.06;;;8.54;77.21
23953;BME280;12163;49.316;6.092;2023-04-07T04:57:15;99275.50;;;8.65;78.28
23953;BME280;12163;49.316;6.092;2023-04-07T04:59:42;99273.09;;;9.02;77.64
23953;BME280;12163;49.316;6.092;2023-04-07T05:02:08;99268.00;;;9.29;76.84
23953;BME280;12163;49.316;6.092;2023-04-07T05:04:35;99280.38;;;9.30;75.09
23953;BME280;12163;49.316;6.092;2023-04-07T05:07:03;99288.03;;;9.18;74.77
23953;BME280;12163;49.316;6.092;2023-04-07T05:09:30;99279.00;;;9.04;74.83
23953;BME280;12163;49.316;6.092;2023-04-07T05:11:56;99285.50;;;8.98;75.32
23953;BME280;12163;49.316;6.092;2023-04-07T05:14:23;99281.66;;;9.09;76.41
23953;BME280;12163;49.316;6.092;2023-04-07T05:16:49;99285.31;;;9.52;76.44
23953;BME280;12163;49.316;6.092;2023-04-07T05:19:16;99284.72;;;9.83;75.33
23953;BME280;12163;49.316;6.092;2023-04-07T05:21:43;99275.03;;;10.05;73.82
23953;BME280;12163;49.316;6.092;2023-04-07T05:24:09;99281.09;;;10.16;73.54
23953;BME280;12163;49.316;6.092;2023-04-07T05:26:36;99281.63;;;10.18;72.70
23953;BME280;12163;49.316;6.092;2023-04-07T05:29:03;99286.63;;;10.06;71.97
23953;BME280;12163;49.316;6.092;2023-04-07T05:31:29;99291.06;;;9.92;72.27
23953;BME280;12163;49.316;6.092;2023-04-07T05:33:56;99299.66;;;9.94;72.44
23953;BME280;12163;49.316;6.092;2023-04-07T05:36:22;99298.94;;;9.89;72.42
23953;BME280;12163;49.316;6.092;2023-04-07T05:38:49;99302.44;;;9.89;72.65
23953;BME280;12163;49.316;6.092;2023-04-07T05:41:16;99299.66;;;9.94;72.84
23953;BME280;12163;49.316;6.092;2023-04-07T05:43:43;99294.78;;;10.01;72.55
23953;BME280;12163;49.316;6.092;2023-04-07T05:46:10;99288.31;;;10.02;72.52
23953;BME280;12163;49.316;6.092;2023-04-07T05:48:36;99291.53;;;10.22;72.91
23953;BME280;12163;49.316;6.092;2023-04-07T05:51:03;99286.50;;;10.16;71.69
23953;BME280;12163;49.316;6.092;2023-04-07T05:53:29;99295.44;;;9.88;72.51
23953;BME280;12163;49.316;6.092;2023-04-07T05:55:56;99294.34;;;9.66;73.38
23953;BME280;12163;49.316;6.092;2023-04-07T05:58:23;99295.63;;;9.45;74.40
23953;BME280;12163;49.316;6.092;2023-04-07T06:00:49;99294.63;;;9.36;75.58
23953;BME280;12163;49.316;6.092;2023-04-07T06:03:16;99295.44;;;9.31;75.63
23953;BME280;12163;49.316;6.092;2023-04-07T06:05:45;99299.28;;;9.25;75.78
23953;BME280;12163;49.316;6.092;2023-04-07T06:08:12;99295.88;;;9.15;76.56
23953;BME280;12163;49.316;6.092;2023-04-07T06:10:38;99297.00;;;9.09;77.27
23953;BME280;12163;49.316;6.092;2023-04-07T06:13:07;99305.13;;;9.04;77.64
23953;BME280;12163;49.316;6.092;2023-04-07T06:15:33;99298.97;;;8.98;78.20
23953;BME280;12163;49.316;6.092;2023-04-07T06:18:00;99304.09;;;8.95;78.39
23953;BME280;12163;49.316;6.092;2023-04-07T06:20:27;99302.22;;;8.95;78.45
23953;BME280;12163;49.316;6.092;2023-04-07T06:22:53;99309.78;;;8.93;78.85
23953;BME280;12163;49.316;6.092;2023-04-07T06:25:20;99302.78;;;8.92;78.88
23953;BME280;12163;49.316;6.092;2023-04-07T06:27:47;99313.00;;;8.95;78.93
23953;BME280;12163;49.316;6.092;2023-04-07T06:30:14;99314.03;;;8.99;79.12
23953;BME280;12163;49.316;6.092;2023-04-07T06:32:41;99308.91;;;9.03;78.76
23953;BME280;12163;49.316;6.092;2023-04-07T06:35:08;99313.47;;;9.02;79.09
23953;BME280;12163;49.316;6.092;2023-04-07T06:37:34;99314.28;;;9.03;79.13
23953;BME280;12163;49.316;6.092;2023-04-07T06:40:02;99314.00;;;9.04;79.07
23953;BME280;12163;49.316;6.092;2023-04-07T06:42:28;99313.41;;;9.07;79.09
23953;BME280;12163;49.316;6.092;2023-04-07T06:44:56;99313.94;;;9.09;79.09
23953;BME280;12163;49.316;6.092;2023-04-07T06:47:22;99324.72;;;9.09;78.90
23953;BME280;12163;49.316;6.092;2023-04-07T06:49:49;99323.34;;;9.12;78.85
23953;BME280;12163;49.316;6.092;2023-04-07T06:52:16;99333.28;;;9.16;78.59
23953;BME280;12163;49.316;6.092;2023-04-07T06:54:43;99330.03;;;9.19;78.72
23953;BME280;12163;49.316;6.092;2023-04-07T06:57:10;99329.72;;;9.26;78.59
23953;BME280;12163;49.316;6.092;2023-04-07T06:59:38;99341.78;;;9.33;78.48
23953;BME280;12163;49.316;6.092;2023-04-07T07:02:04;99342.25;;;9.40;78.40
23953;BME280;12163;49.316;6.092;2023-04-07T07:04:33;99336.28;;;9.43;77.77
23953;BME280;12163;49.316;6.092;2023-04-07T07:07:00;99337.84;;;9.49;77.94
23953;BME280;12163;49.316;6.092;2023-04-07T07:09:28;99331.63;;;9.54;77.89
23953;BME280;12163;49.316;6.092;2023-04-07T07:11:55;99340.47;;;9.59;77.62
23953;BME280;12163;49.316;6.092;2023-04-07T07:14:21;99342.84;;;9.66;77.81
23953;BME280;12163;49.316;6.092;2023-04-07T07:16:48;99344.59;;;9.75;77.56
23953;BME280;12163;49.316;6.092;2023-04-07T07:19:14;99344.00;;;9.83;77.22
23953;BME280;12163;49.316;6.092;2023-04-07T07:21:41;99351.50;;;9.86;76.73
23953;BME280;12163;49.316;6.092;2023-04-07T07:24:08;99357.19;;;9.85;76.50
23953;BME280;12163;49.316;6.092;2023-04-07T07:26:34;99352.31;;;9.87;76.87
23953;BME280;12163;49.316;6.092;2023-04-07T07:29:02;99368.19;;;9.88;76.84
23953;BME280;12163;49.316;6.092;2023-04-07T07:31:28;99357.94;;;9.90;76.63
23953;BME280;12163;49.316;6.092;2023-04-07T07:33:57;99370.31;;;9.91;77.12
23953;BME280;12163;49.316;6.092;2023-04-07T07:36:23;99370.63;;;9.90;76.66
23953;BME280;12163;49.316;6.092;2023-04-07T07:38:50;99367.94;;;9.90;76.55
23953;BME280;12163;49.316;6.092;2023-04-07T07:41:17;99368.97;;;9.94;76.73
23953;BME280;12163;49.316;6.092;2023-04-07T07:43:43;99372.69;;;9.98;76.35
23953;BME280;12163;49.316;6.092;2023-04-07T07:46:11;99378.66;;;9.95;75.60
23953;BME280;12163;49.316;6.092;2023-04-07T07:48:37;99379.41;;;10.00;76.11
23953;BME280;12163;49.316;6.092;2023-04-07T07:51:04;99378.88;;;10.03;75.65
23953;BME280;12163;49.316;6.092;2023-04-07T07:53:31;99370.78;;;10.03;75.73
23953;BME280;12163;49.316;6.092;2023-04-07T07:55:57;99375.59;;;10.06;75.36
23953;BME280;12163;49.316;6.092;2023-04-07T07:58:24;99383.34;;;10.12;75.74
23953;BME280;12163;49.316;6.092;2023-04-07T08:00:51;99382.72;;;10.20;75.50
23953;BME280;12163;49.316;6.092;2023-04-07T08:03:17;99383.47;;;10.26;74.36
23953;BME280;12163;49.316;6.092;2023-04-07T08:05:47;99381.75;;;10.35;74.84
23953;BME280;12163;49.316;6.092;2023-04-07T08:08:13;99389.75;;;10.40;73.96
23953;BME280;12163;49.316;6.092;2023-04-07T08:10:41;99393.03;;;10.37;74.01
23953;BME280;12163;49.316;6.092;2023-04-07T08:13:07;99391.16;;;10.37;73.61
23953;BME280;12163;49.316;6.092;2023-04-07T08:15:34;99395.16;;;10.40;73.37
23953;BME280;12163;49.316;6.092;2023-04-07T08:18:01;99398.91;;;10.44;73.54
23953;BME280;12163;49.316;6.092;2023-04-07T08:20:30;99408.63;;;10.45;73.10
23953;BME280;12163;49.316;6.092;2023-04-07T08:22:57;99406.19;;;10.43;72.94
23953;BME280;12163;49.316;6.092;2023-04-07T08:25:24;99398.59;;;10.45;73.68
23953;BME280;12163;49.316;6.092;2023-04-07T08:27:51;99416.91;;;10.48;73.88
23953;BME280;12163;49.316;6.092;2023-04-07T08:30:17;99410.44;;;10.49;73.85
23953;BME280;12163;49.316;6.092;2023-04-07T08:32:46;99416.00;;;10.58;74.35
23953;BME280;12163;49.316;6.092;2023-04-07T08:35:13;99419.72;;;10.62;74.09
23953;BME280;12163;49.316;6.092;2023-04-07T08:37:40;99421.56;;;10.66;73.79
23953;BME280;12163;49.316;6.092;2023-04-07T08:40:10;99423.97;;;10.68;73.65
23953;BME280;12163;49.316;6.092;2023-04-07T08:42:40;99427.47;;;10.68;73.90
23953;BME280;12163;49.316;6.092;2023-04-07T08:45:08;99427.72;;;10.72;73.77
23953;BME280;12163;49.316;6.092;2023-04-07T08:47:36;99433.03;;;10.77;73.40
23953;BME280;12163;49.316;6.092;2023-04-07T08:50:08;99434.91;;;10.76;73.62
23953;BME280;12163;49.316;6.092;2023-04-07T08:52:48;99443.25;;;10.80;73.66
23953;BME280;12163;49.316;6.092;2023-04-07T08:55:16;99434.06;;;10.81;73.51
23953;BME280;12163;49.316;6.092;2023-04-07T08:57:42;99443.56;;;10.78;73.47
23953;BME280;12163;49.316;6.092;2023-04-07T09:00:09;99450.91;;;10.73;73.14
23953;BME280;12163;49.316;6.092;2023-04-07T09:02:38;99447.44;;;10.67;74.11
23953;BME280;12163;49.316;6.092;2023-04-07T09:05:06;99447.84;;;10.56;72.58
23953;BME280;12163;49.316;6.092;2023-04-07T09:07:35;99449.59;;;10.47;72.96
23953;BME280;12163;49.316;6.092;2023-04-07T09:10:03;99458.81;;;10.41;74.04
23953;BME280;12163;49.316;6.092;2023-04-07T09:12:31;99452.69;;;10.35;74.67
23953;BME280;12163;49.316;6.092;2023-04-07T09:14:58;99457.25;;;10.35;75.11
23953;BME280;12163;49.316;6.092;2023-04-07T09:17:25;99452.72;;;10.30;75.54
23953;BME280;12163;49.316;6.092;2023-04-07T09:19:57;99458.47;;;10.24;75.80
23953;BME280;12163;49.316;6.092;2023-04-07T09:22:39;99453.09;;;10.19;76.03
23953;BME280;12163;49.316;6.092;2023-04-07T09:25:22;99457.47;;;10.15;76.15
23953;BME280;12163;49.316;6.092;2023-04-07T09:27:59;99461.25;;;10.14;76.61
23953;BME280;12163;49.316;6.092;2023-04-07T09:30:28;99458.53;;;10.14;76.61
23953;BME280;12163;49.316;6.092;2023-04-07T09:32:56;99458.50;;;10.19;76.95
23953;BME280;12163;49.316;6.092;2023-04-07T09:35:23;99457.97;;;10.17;76.90
23953;BME280;12163;49.316;6.092;2023-04-07T09:38:06;99459.63;;;10.13;76.35
23953;BME280;12163;49.316;6.092;2023-04-07T09:40:33;99462.78;;;10.20;75.91
23953;BME280;12163;49.316;6.092;2023-04-07T09:43:00;99460.84;;;10.25;76.08
23953;BME280;12163;49.316;6.092;2023-04-07T09:45:29;99464.03;;;10.32;75.58
23953;BME280;12163;49.316;6.092;2023-04-07T09:48:19;99468.03;;;10.35;75.34
23953;BME280;12163;49.316;6.092;2023-04-07T09:50:46;99465.25;;;10.45;75.39
23953;BME280;12163;49.316;6.092;2023-04-07T09:53:14;99463.81;;;10.52;75.08
23953;BME280;12163;49.316;6.092;2023-04-07T09:55:42;99465.66;;;10.57;74.09
23953;BME280;12163;49.316;6.092;2023-04-07T09:58:12;99467.31;;;10.53;74.10
23953;BME280;12163;49.316;6.092;2023-04-07T10:00:42;99473.56;;;10.48;74.86
23953;BME280;12163;49.316;6.092;2023-04-07T10:03:09;99475.50;;;10.43;74.80
23953;BME280;12163;49.316;6.092;2023-04-07T10:05:37;99472.81;;;10.43;75.30
23953;BME280;12163;49.316;6.092;2023-04-07T10:08:08;99471.50;;;10.40;75.30
23953;BME280;12163;49.316;6.092;2023-04-07T10:10:35;99468.50;;;10.42;75.31
23953;BME280;12163;49.316;6.092;2023-04-07T10:13:04;99471.75;;;10.44;75.86
23953;BME280;12163;49.316;6.092;2023-04-07T10:15:32;99471.97;;;10.47;76.13
23953;BME280;12163;49.316;6.092;2023-04-07T10:17:59;99476.00;;;10.50;75.81
23953;BME280;12163;49.316;6.092;2023-04-07T10:20:27;99470.28;;;10.51;76.24
23953;BME280;12163;49.316;6.092;2023-04-07T10:22:55;99472.44;;;10.54;76.64
23953;BME280;12163;49.316;6.092;2023-04-07T10:25:28;99484.03;;;10.55;76.18
23953;BME280;12163;49.316;6.092;2023-04-07T10:28:13;99480.00;;;10.52;76.83
23953;BME280;12163;49.316;6.092;2023-04-07T10:30:42;99467.06;;;10.49;76.17
23953;BME280;12163;49.316;6.092;2023-04-07T10:33:08;99478.16;;;10.48;75.83
23953;BME280;12163;49.316;6.092;2023-04-07T10:36:06;99480.22;;;10.56;75.62
23953;BME280;12163;49.316;6.092;2023-04-07T10:38:34;99479.09;;;10.62;74.92
23953;BME280;12163;49.316;6.092;2023-04-07T10:44:03;99482.78;;;10.71;74.58
23953;BME280;12163;49.316;6.092;2023-04-07T10:47:01;99475.19;;;10.73;74.91
23953;BME280;12163;49.316;6.092;2023-04-07T10:49:27;99478.00;;;10.86;74.54
23953;BME280;12163;49.316;6.092;2023-04-07T10:54:40;99481.81;;;11.04;73.96
23953;BME280;12163;49.316;6.092;2023-04-07T10:59:36;99482.00;;;11.31;73.95
23953;BME280;12163;49.316;6.092;2023-04-07T11:02:29;99475.66;;;11.40;73.45
23953;BME280;12163;49.316;6.092;2023-04-07T11:04:56;99479.50;;;11.53;72.86
23953;BME280;12163;49.316;6.092;2023-04-07T11:07:42;99481.09;;;11.59;71.47
23953;BME280;12163;49.316;6.092;2023-04-07T11:10:12;99465.22;;;11.71;70.97
23953;BME280;12163;49.316;6.092;2023-04-07T11:12:42;99468.69;;;11.89;70.42
23953;BME280;12163;49.316;6.092;2023-04-07T11:15:19;99470.56;;;12.07;70.38
23953;BME280;12163;49.316;6.092;2023-04-07T11:18:25;99460.78;;;12.25;70.02
23953;BME280;12163;49.316;6.092;2023-04-07T11:20:54;99467.31;;;12.37;69.53
23953;BME280;12163;49.316;6.092;2023-04-07T11:23:23;99471.03;;;12.41;69.39
23953;BME280;12163;49.316;6.092;2023-04-07T11:26:01;99478.03;;;12.42;69.28
23953;BME280;12163;49.316;6.092;2023-04-07T11:28:28;99472.56;;;12.47;68.01
23953;BME280;12163;49.316;6.092;2023-04-07T11:30:55;99475.88;;;12.44;68.29
23953;BME280;12163;49.316;6.092;2023-04-07T11:33:26;99477.16;;;12.47;67.55
23953;BME280;12163;49.316;6.092;2023-04-07T11:35:55;99469.84;;;12.47;66.67
23953;BME280;12163;49.316;6.092;2023-04-07T11:38:25;99474.44;;;12.47;66.85
23953;BME280;12163;49.316;6.092;2023-04-07T11:40:53;99473.66;;;12.46;67.79
23953;BME280;12163;49.316;6.092;2023-04-07T11:43:25;99476.28;;;12.51;67.12
23953;BME280;12163;49.316;6.092;2023-04-07T11:46:15;99485.50;;;12.50;67.37
23953;BME280;12163;49.316;6.092;2023-04-07T11:48:44;99478.28;;;12.59;68.04
23953;BME280;12163;49.316;6.092;2023-04-07T11:51:19;99482.50;;;12.65;67.64
23953;BME280;12163;49.316;6.092;2023-04-07T11:53:46;99468.25;;;12.73;67.41
23953;BME280;12163;49.316;6.092;2023-04-07T11:56:15;99482.81;;;12.77;68.58
23953;BME280;12163;49.316;6.092;2023-04-07T11:59:01;99479.59;;;12.75;67.39
23953;BME280;12163;49.316;6.092;2023-04-07T12:01:40;99483.19;;;12.71;66.83
23953;BME280;12163;49.316;6.092;2023-04-07T12:04:11;99479.88;;;12.74;67.25
23953;BME280;12163;49.316;6.092;2023-04-07T12:06:39;99478.50;;;12.76;67.71
23953;BME280;12163;49.316;6.092;2023-04-07T12:09:24;99480.47;;;12.84;65.89
23953;BME280;12163;49.316;6.092;2023-04-07T12:11:52;99490.03;;;12.68;67.02
23953;BME280;12163;49.316;6.092;2023-04-07T12:14:19;99493.13;;;12.48;67.03
23953;BME280;12163;49.316;6.092;2023-04-07T12:16:45;99510.13;;;12.35;67.99
23953;BME280;12163;49.316;6.092;2023-04-07T12:19:12;99518.19;;;12.22;68.53
23953;BME280;12163;49.316;6.092;2023-04-07T12:21:38;99520.84;;;12.08;69.09
23953;BME280;12163;49.316;6.092;2023-04-07T12:24:05;99521.19;;;11.88;69.55
23953;BME280;12163;49.316;6.092;2023-04-07T12:26:32;99529.59;;;11.69;69.20
23953;BME280;12163;49.316;6.092;2023-04-07T12:28:58;99517.34;;;11.53;68.91
23953;BME280;12163;49.316;6.092;2023-04-07T12:31:31;99524.06;;;11.37;69.07
23953;BME280;12163;49.316;6.092;2023-04-07T12:33:58;99513.97;;;11.24;69.20
23953;BME280;12163;49.316;6.092;2023-04-07T12:36:25;99512.78;;;11.11;69.64
23953;BME280;12163;49.316;6.092;2023-04-07T12:38:53;99517.22;;;11.02;70.87
23953;BME280;12163;49.316;6.092;2023-04-07T12:41:20;99509.16;;;10.97;71.12
23953;BME280;12163;49.316;6.092;2023-04-07T12:43:46;99511.34;;;10.95;71.95
23953;BME280;12163;49.316;6.092;2023-04-07T12:46:14;99507.34;;;10.93;72.78
23953;BME280;12163;49.316;6.092;2023-04-07T12:48:40;99510.06;;;10.93;72.78
23953;BME280;12163;49.316;6.092;2023-04-07T12:51:07;99511.16;;;10.92;73.92
23953;BME280;12163;49.316;6.092;2023-04-07T12:53:34;99504.94;;;10.91;73.99
23953;BME280;12163;49.316;6.092;2023-04-07T12:56:00;99512.75;;;10.93;73.86
23953;BME280;12163;49.316;6.092;2023-04-07T12:58:27;99508.38;;;10.97;73.41
23953;BME280;12163;49.316;6.092;2023-04-07T13:00:54;99511.81;;;11.02;73.50
23953;BME280;12163;49.316;6.092;2023-04-07T13:03:22;99506.19;;;10.99;72.88
23953;BME280;12163;49.316;6.092;2023-04-07T13:05:49;99509.41;;;11.01;72.59
23953;BME280;12163;49.316;6.092;2023-04-07T13:08:15;99506.63;;;11.06;72.13
23953;BME280;12163;49.316;6.092;2023-04-07T13:10:42;99502.81;;;11.12;72.18
23953;BME280;12163;49.316;6.092;2023-04-07T13:13:09;99504.84;;;11.20;72.71
23953;BME280;12163;49.316;6.092;2023-04-07T13:15:35;99503.59;;;11.31;72.10
23953;BME280;12163;49.316;6.092;2023-04-07T13:18:02;99494.50;;;11.45;71.97
23953;BME280;12163;49.316;6.092;2023-04-07T13:20:29;99499.50;;;11.57;71.96
23953;BME280;12163;49.316;6.092;2023-04-07T13:22:55;99495.78;;;11.71;71.00
23953;BME280;12163;49.316;6.092;2023-04-07T13:25:35;99494.66;;;11.90;71.34
23953;BME280;12163;49.316;6.092;2023-04-07T13:28:03;99484.00;;;12.12;70.31